Terminal Aerodrome Forecast
Issued by NWS Shreveport, LA

Home | Current Version | Previous Version | Text Only | Print | Product List | Glossary On
Versions: 1 2 3 4 5 6 7 8 9 10 11 12 13 14 15
865
FTUS44 KSHV 281121
TAFLFK
TAF
KLFK 281121Z 2812/2912 17006KT P6SM BKN020
     FM281500 20009KT P6SM VCSH FEW020 BKN035
     FM282300 VRB10KT P6SM -TSRA BKN050CB BKN100=

USA.gov is the U.S. government's official web portal to all federal, state and local government web resources and services.